Contact Us:
Email: info@sawbill.com
Phone: (218)663-7150
Fax: (218)663-7980
Mail: 4620 Sawbill Trail
Box 2129
Tofte, MN 55615


Powered by
Movable Type 3.15
 
Sawbill Weather History Archives: March 2005
Current Sawbill Weather History | « February 2005 | April 2005 »


Date

High
Temperature

Low
Temperature

Barometric
Pressure

Relative
Humidity 7AM

9 AM
Temperature

Moisture

Snow

3/31/05 43 31 29.98 77% 31 0
3/30/05 57 35 29.56 85% 35 .25"
3/29/05 56 39 29.55 72% 40 0
3/28/05 56 32 29.61 66% 32 0
3/27/05 46 21 29.63 79% 32 0
3/26/05 49 16 29.89 70% 21 0
3/25/05 44 9 30.02 65% 16 0
3/24/05 42 7 30.19 64% 8 Trace Trace
3/23/05 46 22 29.91 76% 33 0
3/22/05 49 10 30.09 72% 28 0
3/21/05 44 0 30.25 64% 10 0
3/20/05 44 0 30.29 67% 14 0
3/19/05 43 4 30.19 65% 13 0
3/18/05 43 -4 30.12 62% 4 0
3/17/05 41 -4 30.07 58% -4 0  
3/16/05 36 7 30.05 62% 7 .03" 1"
3/15/05 33 10 30.05 70% 12 .12" 2"
3/14/05 35 7 30.11 65% 10 0  
3/13/05 32 5 30.01 63% 7 Trace Trace
3/12/05 25 1 29.76 57% 5 0  
3/11/05 33 -6 29.50 48% -6 0  
3/10/05 41 19 29.45 72% 19 .15" 2"
3/9/05 32 -3 29.45 66% 21 0  
3/8/05 26 -3 29.98 54% -3 0  
3/7/05 25 -6 29.87 52% -3 0  
3/6/05 47 6 29.64 59% 6 0  
3/5/05 44 28 29.63 77% 31 0  
3/4/05 46 23 29.99 79% 28 0  
3/3/05 40 -1 29.70 68% 23 Trace Trace
3/2/05 34 -16 30.05 52% -1 0  
3/1/05 29 -17 30.10 44% -16 0  
 


Home I Trip Planning I Rentals and Outfitting I Reservations I Campgrounds I Sawbill Store I Sawbill News I Contact

© 1997 - 2017, Sawbill Canoe Outfitters, Inc. I Privacy Policy